Time;durP1;ratioP1;P1;durP2;ratioP2;P2;SDS_P1;SDS_P2;PMS_P1;PMS_P2;Temp;Humidity;BMP_temperature;BMP_pressure;BME280_temperature;BME280_humidity;BME280_pressure;Samples;Min_cycle;Max_cycle;Signal;HPM_P1;HPM_P2
2023/10/16 00:02:23;;;;;;;3.17;2.00;;;;;;;;;;4925359;29;20528;-76
2023/10/16 00:04:52;;;;;;;2.13;1.98;;;;;;;;;;4924840;29;20474;-76
2023/10/16 00:07:22;;;;;;;2.83;2.00;;;;;;;;;;4924248;29;20473;-76
2023/10/16 00:09:55;;;;;;;3.30;1.73;;;;;;;;;;4930539;29;20582;-76
2023/10/16 00:12:23;;;;;;;5.95;2.20;;;;;;;;;;4923117;29;20447;-76
2023/10/16 00:14:50;;;;;;;2.72;1.90;;;;;;;;;;4930402;29;20849;-76
2023/10/16 00:17:21;;;;;;;3.58;2.20;;;;;;;;;;4917865;29;20926;-76
2023/10/16 00:19:48;;;;;;;4.18;1.88;;;;;;;;;;4924349;29;20529;-75
2023/10/16 00:22:18;;;;;;;2.20;2.00;;;;;;;;;;4909711;29;20439;-76
2023/10/16 00:24:46;;;;;;;4.05;2.10;;;;;;;;;;4927259;29;20439;-76
2023/10/16 00:27:14;;;;;;;3.43;2.00;;;;;;;;;;4930186;29;20646;-76
2023/10/16 00:29:42;;;;;;;3.03;1.85;;;;;;;;;;4921592;29;20443;-76
2023/10/16 00:32:11;;;;;;;2.17;1.98;;;;;;;;;;4928826;29;20439;-76
2023/10/16 00:34:39;;;;;;;3.38;2.05;;;;;;;;;;4925990;29;20810;-76
2023/10/16 00:37:10;;;;;;;4.70;1.92;;;;;;;;;;4927760;29;20442;-76
2023/10/16 00:39:37;;;;;;;2.05;1.85;;;;;;;;;;4926378;29;20809;-75
2023/10/16 00:42:08;;;;;;;4.43;2.30;;;;;;;;;;4904020;29;20556;-75
2023/10/16 00:44:36;;;;;;;4.43;2.20;;;;;;;;;;4920719;29;20788;-76
2023/10/16 00:47:04;;;;;;;4.90;2.33;;;;;;;;;;4919704;29;20977;-76
2023/10/16 00:49:34;;;;;;;3.70;2.33;;;;;;;;;;4924425;29;20450;-76
2023/10/16 00:52:04;;;;;;;2.70;2.13;;;;;;;;;;4925856;29;20779;-76
2023/10/16 00:54:33;;;;;;;4.68;2.17;;;;;;;;;;4923872;29;20448;-77
2023/10/16 00:57:07;;;;;;;3.72;2.13;;;;;;;;;;4928260;29;20439;-77
2023/10/16 00:59:39;;;;;;;3.20;2.00;;;;;;;;;;4908402;29;20456;-78
2023/10/16 01:02:17;;;;;;;3.50;1.80;;;;;;;;;;4924292;29;20439;-77
2023/10/16 01:04:47;;;;;;;2.90;1.83;;;;;;;;;;4930486;29;20431;-76
2023/10/16 01:07:14;;;;;;;5.43;2.28;;;;;;;;;;4923216;29;20535;-76
2023/10/16 01:09:42;;;;;;;3.70;2.40;;;;;;;;;;4928850;29;20450;-76
2023/10/16 01:12:13;;;;;;;4.63;2.08;;;;;;;;;;4921721;29;20448;-76
2023/10/16 01:14:40;;;;;;;4.43;2.30;;;;;;;;;;4917378;29;20440;-78
2023/10/16 01:17:10;;;;;;;2.97;2.40;;;;;;;;;;4924202;29;20451;-77
2023/10/16 01:19:46;;;;;;;4.68;2.17;;;;;;;;;;4926409;29;20447;-76
2023/10/16 01:22:14;;;;;;;2.45;2.08;;;;;;;;;;4926429;29;20465;-76
2023/10/16 01:24:45;;;;;;;7.20;2.60;;;;;;;;;;4922892;29;20453;-76
2023/10/16 01:27:25;;;;;;;7.10;2.13;;;;;;;;;;4929837;29;20537;-76
2023/10/16 01:29:53;;;;;;;4.87;2.10;;;;;;;;;;4921577;29;20455;-76
2023/10/16 01:32:21;;;;;;;3.05;1.95;;;;;;;;;;4923199;29;20530;-76
2023/10/16 01:34:50;;;;;;;5.10;1.90;;;;;;;;;;4930490;29;20518;-77
2023/10/16 01:37:18;;;;;;;2.20;2.00;;;;;;;;;;4929874;29;20539;-77
2023/10/16 01:40:16;;;;;;;2.40;1.50;;;;;;;;;;4929336;29;20467;-77
2023/10/16 01:42:43;;;;;;;2.55;2.22;;;;;;;;;;4923750;29;20439;-77
2023/10/16 01:45:14;;;;;;;3.33;1.60;;;;;;;;;;4929820;29;20451;-77
2023/10/16 01:47:41;;;;;;;3.30;2.33;;;;;;;;;;4924568;29;20518;-76
2023/10/16 01:50:20;;;;;;;3.47;1.90;;;;;;;;;;4918772;29;20481;-77
2023/10/16 01:52:49;;;;;;;6.72;2.13;;;;;;;;;;4919821;29;20443;-77
2023/10/16 01:55:16;;;;;;;2.45;2.10;;;;;;;;;;4922339;29;20511;-77
2023/10/16 01:57:47;;;;;;;5.15;2.03;;;;;;;;;;4927333;29;20490;-76
2023/10/16 02:00:24;;;;;;;3.03;2.35;;;;;;;;;;4929062;29;20910;-76
2023/10/16 02:02:51;;;;;;;4.13;2.20;;;;;;;;;;4923813;29;20521;-76
2023/10/16 02:05:22;;;;;;;2.08;1.73;;;;;;;;;;4925183;29;21262;-76
2023/10/16 02:07:50;;;;;;;3.25;1.83;;;;;;;;;;4926449;29;20978;-76
2023/10/16 02:10:20;;;;;;;2.83;2.13;;;;;;;;;;4927975;29;20448;-76
2023/10/16 02:12:50;;;;;;;2.38;2.17;;;;;;;;;;4930192;29;20444;-76
2023/10/16 02:15:23;;;;;;;2.92;2.10;;;;;;;;;;4929426;29;20439;-76
2023/10/16 02:17:50;;;;;;;13.30;11.52;;;;;;;;;;4928629;29;20447;-76
2023/10/16 02:20:19;;;;;;;4.50;3.03;;;;;;;;;;4919604;29;20952;-77
2023/10/16 02:22:46;;;;;;;3.35;2.00;;;;;;;;;;4927149;29;20447;-78
2023/10/16 02:25:17;;;;;;;6.60;2.35;;;;;;;;;;4925078;29;20504;-78
2023/10/16 02:27:44;;;;;;;3.95;1.80;;;;;;;;;;4931454;29;20514;-78
2023/10/16 02:32:59;;;;;;;2.70;2.15;;;;;;;;;;4922704;29;20953;-77
2023/10/16 02:35:27;;;;;;;5.25;2.60;;;;;;;;;;4919922;29;20449;-78
2023/10/16 02:37:57;;;;;;;2.38;2.10;;;;;;;;;;4932790;29;20463;-77
2023/10/16 02:40:25;;;;;;;3.78;2.22;;;;;;;;;;4930708;29;20444;-77
2023/10/16 02:43:00;;;;;;;2.38;2.20;;;;;;;;;;4930193;29;20442;-77
2023/10/16 02:45:31;;;;;;;16.50;15.02;;;;;;;;;;4931073;29;20877;-77
2023/10/16 02:47:58;;;;;;;5.50;2.17;;;;;;;;;;4914189;29;20441;-77
2023/10/16 02:50:26;;;;;;;2.10;1.90;;;;;;;;;;4931051;29;20499;-77
2023/10/16 02:52:53;;;;;;;4.65;2.00;;;;;;;;;;4909490;29;20439;-77
2023/10/16 02:55:20;;;;;;;9.27;8.40;;;;;;;;;;4932042;29;20447;-77
2023/10/16 02:57:47;;;;;;;3.97;1.95;;;;;;;;;;4916252;29;20439;-78
2023/10/16 03:00:25;;;;;;;5.05;2.15;;;;;;;;;;4931264;29;20443;-77
2023/10/16 03:02:53;;;;;;;2.58;2.00;;;;;;;;;;4923037;29;21172;-78
2023/10/16 03:05:24;;;;;;;4.28;1.80;;;;;;;;;;4927860;29;20449;-77
2023/10/16 03:07:52;;;;;;;8.05;2.10;;;;;;;;;;4928486;29;20446;-77
2023/10/16 03:10:22;;;;;;;5.13;2.28;;;;;;;;;;4917283;29;20475;-78
2023/10/16 03:12:52;;;;;;;4.10;2.03;;;;;;;;;;4922174;29;20443;-78
2023/10/16 03:15:31;;;;;;;3.00;2.07;;;;;;;;;;4927458;29;20449;-77
2023/10/16 03:18:00;;;;;;;4.13;2.28;;;;;;;;;;4926775;29;20452;-77
2023/10/16 03:20:37;;;;;;;6.05;2.75;;;;;;;;;;4928844;29;20450;-78
2023/10/16 03:23:07;;;;;;;4.45;2.70;;;;;;;;;;4928923;29;20447;-78
2023/10/16 03:28:11;;;;;;;4.95;2.97;;;;;;;;;;4932039;29;20594;-78
2023/10/16 03:30:42;;;;;;;7.22;2.92;;;;;;;;;;4929340;29;20443;-79
2023/10/16 03:33:14;;;;;;;4.80;2.63;;;;;;;;;;4925445;29;20925;-78
2023/10/16 03:35:44;;;;;;;5.05;2.40;;;;;;;;;;4919600;29;20773;-78
2023/10/16 03:38:12;;;;;;;2.47;2.20;;;;;;;;;;4931792;29;20439;-78
2023/10/16 03:40:43;;;;;;;4.40;2.53;;;;;;;;;;4926107;29;21114;-78
2023/10/16 03:43:11;;;;;;;5.10;2.20;;;;;;;;;;4928666;29;21079;-79
2023/10/16 03:45:40;;;;;;;5.13;1.98;;;;;;;;;;4930610;29;21504;-79
2023/10/16 03:48:10;;;;;;;3.42;2.03;;;;;;;;;;4932186;29;20537;-79
2023/10/16 03:50:39;;;;;;;2.53;2.05;;;;;;;;;;4929578;29;20440;-79
2023/10/16 03:53:07;;;;;;;2.35;2.13;;;;;;;;;;4930246;29;20478;-79
2023/10/16 03:55:43;;;;;;;2.95;2.45;;;;;;;;;;4932466;29;20447;-79
2023/10/16 03:58:14;;;;;;;5.18;2.40;;;;;;;;;;4931312;29;20439;-78
2023/10/16 04:00:52;;;;;;;4.30;2.47;;;;;;;;;;4931348;29;20938;-78
2023/10/16 04:03:21;;;;;;;5.57;2.45;;;;;;;;;;4927031;29;20463;-78
2023/10/16 04:05:50;;;;;;;7.03;2.55;;;;;;;;;;4934460;29;20510;-79
2023/10/16 04:08:18;;;;;;;3.67;2.38;;;;;;;;;;4930995;29;20463;-79
2023/10/16 04:10:47;;;;;;;3.50;2.30;;;;;;;;;;4933210;29;20798;-79
2023/10/16 04:13:15;;;;;;;5.15;2.05;;;;;;;;;;4934639;29;20510;-79
2023/10/16 04:18:28;;;;;;;3.88;2.80;;;;;;;;;;4923521;29;20447;-79
2023/10/16 04:36:54;;;;;;;2.35;1.70;;;;;;;;;;4930086;29;20870;-79
2023/10/16 04:47:47;;;;;;;5.32;2.40;;;;;;;;;;4928170;29;20476;-78
2023/10/16 04:50:27;;;;;;;2.88;2.42;;;;;;;;;;4933581;29;20436;-78
2023/10/16 04:53:21;;;;;;;5.32;2.38;;;;;;;;;;4930891;29;20434;-78
2023/10/16 04:58:38;;;;;;;5.30;2.40;;;;;;;;;;4932466;29;20439;-78
2023/10/16 05:06:27;;;;;;;2.17;1.98;;;;;;;;;;4930061;29;20469;-78
2023/10/16 06:15:00;;;;;;;6.70;3.78;;;;;;;;;;4931497;29;20439;-76
2023/10/16 06:17:28;;;;;;;5.88;3.95;;;;;;;;;;4907428;29;20890;-76
2023/10/16 06:19:58;;;;;;;7.65;3.40;;;;;;;;;;4923248;29;20446;-76
2023/10/16 06:22:25;;;;;;;6.75;3.30;;;;;;;;;;4931186;29;20506;-76
2023/10/16 06:24:53;;;;;;;6.38;3.40;;;;;;;;;;4931634;29;20435;-76
2023/10/16 06:27:21;;;;;;;6.70;3.77;;;;;;;;;;4917868;29;20552;-76
2023/10/16 06:29:53;;;;;;;5.40;3.10;;;;;;;;;;4919128;29;20525;-77
2023/10/16 06:32:26;;;;;;;6.43;3.53;;;;;;;;;;4928516;29;20813;-77
2023/10/16 06:34:57;;;;;;;5.95;3.42;;;;;;;;;;4925772;29;20939;-77
2023/10/16 06:37:31;;;;;;;8.40;3.70;;;;;;;;;;4928018;29;20446;-77
2023/10/16 06:40:00;;;;;;;6.05;3.63;;;;;;;;;;4921167;29;20439;-75
2023/10/16 06:42:36;;;;;;;6.35;3.28;;;;;;;;;;4924650;29;20443;-77
2023/10/16 06:45:07;;;;;;;3.58;3.22;;;;;;;;;;4929201;29;20932;-76
2023/10/16 06:47:35;;;;;;;5.45;3.40;;;;;;;;;;4922118;29;20444;-76
2023/10/16 06:50:33;;;;;;;4.38;3.15;;;;;;;;;;4923288;29;20445;-76
2023/10/16 06:52:55;;;;;;;5.18;3.35;;;;;;;;;;4923640;29;20443;-77
2023/10/16 06:55:23;;;;;;;4.13;2.92;;;;;;;;;;4922918;29;21128;-77
2023/10/16 06:57:50;;;;;;;6.13;3.43;;;;;;;;;;4919562;29;20445;-76
2023/10/16 07:00:27;;;;;;;7.75;3.38;;;;;;;;;;4926886;29;20440;-76
2023/10/16 07:03:01;;;;;;;5.30;2.78;;;;;;;;;;4931285;29;20471;-76
2023/10/16 07:08:26;;;;;;;14.65;13.52;;;;;;;;;;4874726;29;21161;-75
2023/10/16 07:11:03;;;;;;;4.63;2.97;;;;;;;;;;4873540;29;20450;-76
2023/10/16 07:13:31;;;;;;;2.85;2.55;;;;;;;;;;4877260;29;20444;-76
2023/10/16 07:16:02;;;;;;;2.38;2.17;;;;;;;;;;4872790;29;20448;-76
2023/10/16 07:18:42;;;;;;;2.90;1.88;;;;;;;;;;4881099;29;20446;-73
2023/10/16 07:21:09;;;;;;;3.90;3.50;;;;;;;;;;4880735;29;20446;-74
2023/10/16 07:23:38;;;;;;;3.70;2.92;;;;;;;;;;4875174;29;20444;-74
2023/10/16 07:26:06;;;;;;;3.70;2.70;;;;;;;;;;4877232;29;20455;-75
2023/10/16 07:28:34;;;;;;;3.72;2.90;;;;;;;;;;4873872;29;20459;-74
2023/10/16 07:31:10;;;;;;;4.32;2.83;;;;;;;;;;4874583;29;20939;-74
2023/10/16 07:33:41;;;;;;;4.30;2.85;;;;;;;;;;4874004;29;20444;-74
2023/10/16 07:36:11;;;;;;;5.13;2.88;;;;;;;;;;4869629;29;20589;-74
2023/10/16 07:38:41;;;;;;;4.63;3.42;;;;;;;;;;4873624;29;20479;-74
2023/10/16 07:41:11;;;;;;;4.00;2.63;;;;;;;;;;4877257;29;21044;-75
2023/10/16 07:43:46;;;;;;;4.80;3.35;;;;;;;;;;4874415;29;20436;-74
2023/10/16 07:46:28;;;;;;;5.90;3.47;;;;;;;;;;4931439;29;20864;-75
2023/10/16 07:49:10;;;;;;;5.82;3.70;;;;;;;;;;4931490;29;20439;-75
2023/10/16 07:51:44;;;;;;;5.57;4.80;;;;;;;;;;4933086;29;20472;-75
2023/10/16 07:54:12;;;;;;;9.23;4.75;;;;;;;;;;4926149;29;20449;-74
2023/10/16 07:56:39;;;;;;;9.23;5.35;;;;;;;;;;4931932;29;20448;-74
2023/10/16 07:59:21;;;;;;;6.90;4.57;;;;;;;;;;4924907;29;20441;-74
2023/10/16 08:01:57;;;;;;;6.53;4.07;;;;;;;;;;4934964;29;20439;-74
2023/10/16 08:06:53;;;;;;;8.82;4.75;;;;;;;;;;4929574;29;20437;-74
2023/10/16 08:11:57;;;;;;;9.38;5.63;;;;;;;;;;4931031;29;20543;-75
2023/10/16 08:14:26;;;;;;;7.45;4.32;;;;;;;;;;4913166;29;20526;-75
2023/10/16 08:17:14;;;;;;;8.93;4.50;;;;;;;;;;4931134;29;20451;-74
2023/10/16 08:19:43;;;;;;;5.67;4.17;;;;;;;;;;4921170;29;20455;-74
2023/10/16 08:22:13;;;;;;;11.60;4.60;;;;;;;;;;4921845;29;21007;-74
2023/10/16 08:24:58;;;;;;;7.78;4.38;;;;;;;;;;4930993;29;20443;-75
2023/10/16 08:27:44;;;;;;;7.80;4.57;;;;;;;;;;4930105;29;20440;-75
2023/10/16 08:30:18;;;;;;;6.10;4.88;;;;;;;;;;4927442;29;20446;-74
2023/10/16 08:35:19;;;;;;;8.23;4.60;;;;;;;;;;4923857;29;20450;-74
2023/10/16 08:37:56;;;;;;;7.93;4.53;;;;;;;;;;4917369;29;20448;-74
2023/10/16 08:40:34;;;;;;;6.57;5.65;;;;;;;;;;4903312;29;20531;-74
2023/10/16 08:43:08;;;;;;;7.15;4.93;;;;;;;;;;4913069;29;20474;-74
2023/10/16 08:45:44;;;;;;;6.97;5.13;;;;;;;;;;4927619;29;20443;-73
2023/10/16 08:48:17;;;;;;;6.32;4.82;;;;;;;;;;4921453;29;20780;-75
2023/10/16 08:50:52;;;;;;;8.50;4.50;;;;;;;;;;4926357;29;20456;-74
2023/10/16 08:53:32;;;;;;;8.05;5.07;;;;;;;;;;4920243;29;20444;-73
2023/10/16 08:56:08;;;;;;;9.50;5.73;;;;;;;;;;4924670;29;20471;-74
2023/10/16 08:58:44;;;;;;;6.40;5.57;;;;;;;;;;4918369;29;20928;-74
2023/10/16 09:01:13;;;;;;;11.13;5.70;;;;;;;;;;4919314;29;20502;-74
2023/10/16 09:03:46;;;;;;;8.23;5.85;;;;;;;;;;4907811;29;20460;-74
2023/10/16 09:06:22;;;;;;;7.20;4.93;;;;;;;;;;4925937;29;20524;-74
2023/10/16 09:08:58;;;;;;;6.05;4.90;;;;;;;;;;4924209;29;20517;-74
2023/10/16 09:11:26;;;;;;;5.47;4.93;;;;;;;;;;4920164;29;20522;-74
2023/10/16 09:13:59;;;;;;;7.45;4.95;;;;;;;;;;4927357;29;20443;-73
2023/10/16 09:16:31;;;;;;;12.73;11.55;;;;;;;;;;4913990;29;20454;-74
2023/10/16 09:18:59;;;;;;;17.80;16.13;;;;;;;;;;4924360;29;20445;-74
2023/10/16 09:21:30;;;;;;;14.77;13.47;;;;;;;;;;4929044;29;20440;-74
2023/10/16 09:24:02;;;;;;;8.00;4.70;;;;;;;;;;4928289;29;21096;-73
2023/10/16 09:26:32;;;;;;;10.60;5.05;;;;;;;;;;4916884;29;20456;-73
2023/10/16 09:29:15;;;;;;;5.95;4.68;;;;;;;;;;4924984;29;20945;-74
2023/10/16 09:31:46;;;;;;;5.88;4.45;;;;;;;;;;4921538;29;20507;-74
2023/10/16 09:34:17;;;;;;;7.80;5.57;;;;;;;;;;4919767;29;20466;-74
2023/10/16 09:39:34;;;;;;;7.60;5.10;;;;;;;;;;4927035;29;20528;-74
2023/10/16 09:42:11;;;;;;;6.87;4.47;;;;;;;;;;4919980;29;20488;-74
2023/10/16 09:44:40;;;;;;;18.60;16.90;;;;;;;;;;4924433;29;20443;-74
2023/10/16 09:47:25;;;;;;;7.93;7.13;;;;;;;;;;4918166;29;20451;-74
2023/10/16 09:49:58;;;;;;;9.27;5.20;;;;;;;;;;4921029;29;20454;-73
2023/10/16 09:52:25;;;;;;;7.05;4.97;;;;;;;;;;4928668;29;20439;-74
2023/10/16 09:54:53;;;;;;;7.03;4.57;;;;;;;;;;4915695;29;20454;-72
2023/10/16 09:57:27;;;;;;;8.20;4.20;;;;;;;;;;4922019;29;20472;-74
2023/10/16 09:59:54;;;;;;;6.90;4.25;;;;;;;;;;4922939;29;20479;-73
2023/10/16 10:02:25;;;;;;;6.20;4.00;;;;;;;;;;4921668;29;21017;-74
2023/10/16 10:04:59;;;;;;;4.80;2.70;;;;;;;;;;4924589;29;20811;-74
2023/10/16 10:07:49;;;;;;;4.47;3.20;;;;;;;;;;4921451;29;20439;-74
2023/10/16 10:13:08;;;;;;;5.45;3.63;;;;;;;;;;4916252;29;20456;-73
2023/10/16 10:15:44;;;;;;;5.78;4.00;;;;;;;;;;4912643;29;20934;-73
2023/10/16 10:18:32;;;;;;;5.55;3.90;;;;;;;;;;4920904;29;20470;-74
2023/10/16 10:21:11;;;;;;;6.30;3.72;;;;;;;;;;4926173;29;20447;-71
2023/10/16 10:23:41;;;;;;;5.45;4.13;;;;;;;;;;4923683;29;20541;-74
2023/10/16 10:26:11;;;;;;;9.57;4.45;;;;;;;;;;4926970;29;20441;-73
2023/10/16 10:28:41;;;;;;;6.45;4.20;;;;;;;;;;4925788;29;20446;-73
2023/10/16 10:31:15;;;;;;;7.25;3.90;;;;;;;;;;4923572;29;20530;-73
2023/10/16 10:33:51;;;;;;;4.75;3.67;;;;;;;;;;4919636;29;20456;-73
2023/10/16 10:36:28;;;;;;;4.30;3.65;;;;;;;;;;4918607;29;20431;-74
2023/10/16 10:39:20;;;;;;;5.82;3.83;;;;;;;;;;4901566;29;20533;-72
2023/10/16 10:41:47;;;;;;;4.20;3.08;;;;;;;;;;4920831;29;20518;-74
2023/10/16 10:44:18;;;;;;;2.97;2.73;;;;;;;;;;4921569;29;20514;-74
2023/10/16 10:46:49;;;;;;;9.18;8.38;;;;;;;;;;4912198;29;20440;-74
2023/10/16 10:49:17;;;;;;;115.50;106.93;;;;;;;;;;4921950;29;20940;-74
2023/10/16 10:51:46;;;;;;;11.80;10.55;;;;;;;;;;4916160;29;20504;-72
2023/10/16 10:54:13;;;;;;;4.35;2.67;;;;;;;;;;4921131;29;20517;-73
2023/10/16 10:56:48;;;;;;;3.72;2.35;;;;;;;;;;4922828;29;20450;-73
2023/10/16 10:59:38;;;;;;;5.47;2.38;;;;;;;;;;4931514;29;20534;-74
2023/10/16 11:04:47;;;;;;;2.35;1.70;;;;;;;;;;4922341;29;20445;-73
2023/10/16 11:07:23;;;;;;;3.55;1.83;;;;;;;;;;4921179;29;20438;-74
2023/10/16 11:09:51;;;;;;;3.80;1.77;;;;;;;;;;4930476;29;20801;-73
2023/10/16 11:12:25;;;;;;;3.50;2.10;;;;;;;;;;4908588;29;20480;-74
2023/10/16 11:14:56;;;;;;;2.50;1.70;;;;;;;;;;4927542;29;20848;-74
2023/10/16 11:17:30;;;;;;;3.75;1.98;;;;;;;;;;4925825;29;20511;-74
2023/10/16 11:19:59;;;;;;;5.43;1.98;;;;;;;;;;4909851;29;20445;-71
2023/10/16 11:22:31;;;;;;;3.72;1.58;;;;;;;;;;4928649;29;20443;-73
2023/10/16 11:24:59;;;;;;;5.32;1.58;;;;;;;;;;4920599;29;20979;-73
2023/10/16 11:27:26;;;;;;;4.27;1.80;;;;;;;;;;4928201;29;20795;-73
2023/10/16 11:29:54;;;;;;;2.38;1.48;;;;;;;;;;4921042;29;20445;-70
2023/10/16 11:32:25;;;;;;;1.67;1.50;;;;;;;;;;4920318;29;20453;-74
2023/10/16 11:35:13;;;;;;;2.00;1.40;;;;;;;;;;4927652;29;20940;-73
2023/10/16 11:37:43;;;;;;;4.03;1.40;;;;;;;;;;4917109;29;20445;-73
2023/10/16 11:40:19;;;;;;;5.65;4.30;;;;;;;;;;4931022;29;20447;-73
2023/10/16 11:42:48;;;;;;;3.20;1.67;;;;;;;;;;4925027;29;21021;-69
2023/10/16 11:45:19;;;;;;;2.97;1.90;;;;;;;;;;4919829;29;20778;-74
2023/10/16 11:50:40;;;;;;;3.25;1.15;;;;;;;;;;4924354;29;20439;-73
2023/10/16 11:53:10;;;;;;;4.55;1.65;;;;;;;;;;4915193;29;20540;-73
2023/10/16 11:55:38;;;;;;;47.38;43.80;;;;;;;;;;4928336;29;20471;-74
2023/10/16 11:58:08;;;;;;;339.35;311.45;;;;;;;;;;4925630;29;20985;-72
2023/10/16 12:00:36;;;;;;;2.20;1.63;;;;;;;;;;4901231;29;20961;-74
2023/10/16 12:03:07;;;;;;;24.80;22.83;;;;;;;;;;4918830;29;20437;-72
2023/10/16 12:05:35;;;;;;;4.00;1.20;;;;;;;;;;4929933;29;20529;-73
2023/10/16 12:08:07;;;;;;;1.80;1.40;;;;;;;;;;4922165;29;20445;-74
2023/10/16 12:10:38;;;;;;;1.67;1.20;;;;;;;;;;4903379;29;20504;-73
2023/10/16 12:13:06;;;;;;;3.58;1.30;;;;;;;;;;4923936;29;20534;-72
2023/10/16 12:15:37;;;;;;;4.95;1.40;;;;;;;;;;4922933;29;20944;-69
2023/10/16 12:18:09;;;;;;;2.30;1.40;;;;;;;;;;4925105;29;20570;-72
2023/10/16 12:20:40;;;;;;;3.55;1.20;;;;;;;;;;4930292;29;20835;-71
2023/10/16 12:23:09;;;;;;;2.60;2.22;;;;;;;;;;4930963;29;20567;-71
2023/10/16 12:25:39;;;;;;;2.08;1.20;;;;;;;;;;4925601;29;20826;-69
2023/10/16 12:28:08;;;;;;;1.85;1.08;;;;;;;;;;4925168;29;20581;-71
2023/10/16 12:30:37;;;;;;;3.38;1.25;;;;;;;;;;4922431;29;20474;-73
2023/10/16 12:33:06;;;;;;;1.70;1.00;;;;;;;;;;4918739;29;20533;-74
2023/10/16 12:35:36;;;;;;;2.17;1.00;;;;;;;;;;4920357;29;20443;-75
2023/10/16 12:38:07;;;;;;;1.13;0.90;;;;;;;;;;4909046;29;20436;-73
2023/10/16 12:40:34;;;;;;;2.33;1.15;;;;;;;;;;4930806;29;20445;-73
2023/10/16 12:43:01;;;;;;;3.75;1.20;;;;;;;;;;4926346;29;20445;-72
2023/10/16 12:45:29;;;;;;;1.90;1.20;;;;;;;;;;4927662;29;20949;-71
2023/10/16 12:47:56;;;;;;;2.80;1.23;;;;;;;;;;4928786;29;20538;-72
2023/10/16 12:50:27;;;;;;;2.22;1.05;;;;;;;;;;4924000;29;20770;-73
2023/10/16 12:52:58;;;;;;;0.85;0.82;;;;;;;;;;4923297;29;20447;-73
2023/10/16 12:55:26;;;;;;;3.50;2.00;;;;;;;;;;4925380;29;20584;-72
2023/10/16 12:57:56;;;;;;;3.72;0.85;;;;;;;;;;4919893;29;20506;-74
2023/10/16 13:00:24;;;;;;;2.70;0.90;;;;;;;;;;4917939;29;20801;-74
2023/10/16 13:02:52;;;;;;;1.90;0.90;;;;;;;;;;4924508;29;20462;-74
2023/10/16 13:05:24;;;;;;;1.70;0.73;;;;;;;;;;4920300;29;20581;-75
2023/10/16 13:07:54;;;;;;;1.60;0.90;;;;;;;;;;4921488;29;21030;-74
2023/10/16 13:10:27;;;;;;;1.33;0.88;;;;;;;;;;4919135;29;20440;-74
2023/10/16 13:12:57;;;;;;;2.38;1.08;;;;;;;;;;4924085;29;20451;-74
2023/10/16 13:15:25;;;;;;;1.30;0.70;;;;;;;;;;4913084;29;20599;-74
2023/10/16 13:17:52;;;;;;;1.87;0.77;;;;;;;;;;4927436;29;20439;-74
2023/10/16 13:20:27;;;;;;;2.17;0.80;;;;;;;;;;4929168;29;20502;-74
2023/10/16 13:23:00;;;;;;;1.85;0.65;;;;;;;;;;4922224;29;20443;-72
2023/10/16 13:25:34;;;;;;;3.95;0.80;;;;;;;;;;4927850;29;20474;-71
2023/10/16 13:28:03;;;;;;;1.33;0.82;;;;;;;;;;4917890;29;20514;-71
2023/10/16 13:30:31;;;;;;;1.80;0.82;;;;;;;;;;4926518;29;20502;-73
2023/10/16 13:33:06;;;;;;;2.58;0.90;;;;;;;;;;4922177;29;20447;-71
2023/10/16 13:35:38;;;;;;;1.75;0.90;;;;;;;;;;4918821;29;20449;-73
2023/10/16 13:38:07;;;;;;;2.10;0.90;;;;;;;;;;4915724;29;20470;-74
2023/10/16 13:40:35;;;;;;;2.90;0.70;;;;;;;;;;4929734;29;20447;-74
2023/10/16 13:43:03;;;;;;;3.60;0.90;;;;;;;;;;4918193;29;21107;-72
2023/10/16 13:45:30;;;;;;;4.55;0.95;;;;;;;;;;4917974;29;20525;-73
2023/10/16 13:47:57;;;;;;;1.15;0.82;;;;;;;;;;4923496;29;20443;-73
2023/10/16 13:50:24;;;;;;;3.15;1.23;;;;;;;;;;4925410;29;20525;-73
2023/10/16 13:52:55;;;;;;;2.03;0.93;;;;;;;;;;4929061;29;20926;-73
2023/10/16 13:55:24;;;;;;;19.17;2.13;;;;;;;;;;4928803;29;20438;-74
2023/10/16 13:57:54;;;;;;;2.38;1.08;;;;;;;;;;4926450;29;20893;-72
2023/10/16 14:00:35;;;;;;;0.85;0.82;;;;;;;;;;4928165;29;20827;-69
2023/10/16 14:03:16;;;;;;;1.95;0.90;;;;;;;;;;4925613;29;20441;-72
2023/10/16 14:05:47;;;;;;;2.40;1.02;;;;;;;;;;4928289;29;20438;-72
2023/10/16 14:08:26;;;;;;;2.23;1.10;;;;;;;;;;4922482;29;21474;-71
2023/10/16 14:10:57;;;;;;;3.33;1.00;;;;;;;;;;4917050;29;20442;-71
2023/10/16 14:13:29;;;;;;;1.05;0.90;;;;;;;;;;4923950;29;20460;-70
2023/10/16 14:16:17;;;;;;;3.53;0.98;;;;;;;;;;4925224;29;20474;-72
2023/10/16 14:18:45;;;;;;;2.63;1.00;;;;;;;;;;4918689;29;20435;-71
2023/10/16 14:21:13;;;;;;;2.25;0.88;;;;;;;;;;4924274;29;20447;-73
2023/10/16 14:23:43;;;;;;;4.28;0.50;;;;;;;;;;4921494;29;20459;-73
2023/10/16 14:26:12;;;;;;;2.00;0.90;;;;;;;;;;4914412;29;20469;-73
2023/10/16 14:28:50;;;;;;;2.65;0.80;;;;;;;;;;4928730;29;20481;-73
2023/10/16 14:31:21;;;;;;;1.58;1.00;;;;;;;;;;4933353;29;20458;-72
2023/10/16 14:33:53;;;;;;;2.30;0.80;;;;;;;;;;4924908;29;20447;-70
2023/10/16 14:36:24;;;;;;;1.85;0.60;;;;;;;;;;4927510;29;21104;-73
2023/10/16 14:38:54;;;;;;;0.80;0.70;;;;;;;;;;4926291;29;20794;-73
2023/10/16 14:41:23;;;;;;;3.07;0.87;;;;;;;;;;4930162;29;20444;-73
2023/10/16 14:43:53;;;;;;;1.97;0.80;;;;;;;;;;4926342;29;20439;-73
2023/10/16 14:46:28;;;;;;;1.27;0.88;;;;;;;;;;4927542;29;20433;-72
2023/10/16 14:48:56;;;;;;;2.15;0.70;;;;;;;;;;4928174;29;20438;-73
2023/10/16 14:51:24;;;;;;;1.20;0.60;;;;;;;;;;4928882;29;20510;-73
2023/10/16 14:53:55;;;;;;;2.20;0.73;;;;;;;;;;4925237;29;20470;-72
2023/10/16 14:56:25;;;;;;;1.77;0.60;;;;;;;;;;4930273;29;20451;-73
2023/10/16 14:58:52;;;;;;;1.40;0.70;;;;;;;;;;4924616;29;20466;-73
2023/10/16 15:01:24;;;;;;;1.93;0.70;;;;;;;;;;4930414;29;21390;-73
2023/10/16 15:03:53;;;;;;;2.88;0.60;;;;;;;;;;4924927;29;20441;-73
2023/10/16 15:06:22;;;;;;;1.50;0.90;;;;;;;;;;4929086;29;20447;-73
2023/10/16 15:08:56;;;;;;;4.22;0.90;;;;;;;;;;4932040;29;20922;-73
2023/10/16 15:11:28;;;;;;;1.98;0.70;;;;;;;;;;4923128;29;20521;-72
2023/10/16 15:13:56;;;;;;;1.10;0.90;;;;;;;;;;4920342;29;20482;-73
2023/10/16 15:16:23;;;;;;;1.50;0.60;;;;;;;;;;4934307;29;20450;-73
2023/10/16 15:18:50;;;;;;;1.60;0.90;;;;;;;;;;4920700;29;20446;-72
2023/10/16 15:21:17;;;;;;;1.67;0.60;;;;;;;;;;4929678;29;20447;-73
2023/10/16 15:23:45;;;;;;;3.60;0.70;;;;;;;;;;4927027;29;20944;-73
2023/10/16 15:26:13;;;;;;;3.10;0.67;;;;;;;;;;4928796;29;20494;-73
2023/10/16 15:28:40;;;;;;;2.22;0.50;;;;;;;;;;4928128;29;20475;-73
2023/10/16 15:31:13;;;;;;;2.03;0.75;;;;;;;;;;4920517;29;21215;-69
2023/10/16 15:33:45;;;;;;;2.47;0.80;;;;;;;;;;4924811;29;20439;-73
2023/10/16 15:36:17;;;;;;;1.63;0.63;;;;;;;;;;4926924;29;20474;-73
2023/10/16 15:38:49;;;;;;;1.25;0.90;;;;;;;;;;4932050;29;20465;-72
2023/10/16 15:41:16;;;;;;;2.40;0.75;;;;;;;;;;4925661;29;20478;-73
2023/10/16 15:43:43;;;;;;;2.90;0.63;;;;;;;;;;4929735;29;20439;-73
2023/10/16 15:46:22;;;;;;;0.95;0.70;;;;;;;;;;4923606;29;20455;-73
2023/10/16 15:48:50;;;;;;;2.90;1.00;;;;;;;;;;4929266;29;20439;-73
2023/10/16 15:51:21;;;;;;;2.10;1.03;;;;;;;;;;4921221;29;20443;-73
2023/10/16 15:53:50;;;;;;;1.00;0.60;;;;;;;;;;4931255;29;20526;-73
2023/10/16 15:56:24;;;;;;;2.63;0.75;;;;;;;;;;4924777;29;20591;-73
2023/10/16 15:58:52;;;;;;;1.98;0.73;;;;;;;;;;4901751;29;20954;-73
2023/10/16 16:01:19;;;;;;;3.15;0.52;;;;;;;;;;4926630;29;20452;-73
2023/10/16 16:03:49;;;;;;;0.55;0.50;;;;;;;;;;4909397;29;20444;-73
2023/10/16 16:06:17;;;;;;;2.20;1.30;;;;;;;;;;4913926;29;20441;-73
2023/10/16 16:08:46;;;;;;;1.83;0.93;;;;;;;;;;4911074;29;20887;-73
2023/10/16 16:11:19;;;;;;;2.15;1.00;;;;;;;;;;4926904;29;20505;-73
2023/10/16 16:13:47;;;;;;;0.70;0.70;;;;;;;;;;4927112;29;20442;-73
2023/10/16 16:16:14;;;;;;;0.80;0.50;;;;;;;;;;4909671;29;20913;-73
2023/10/16 16:18:45;;;;;;;2.22;0.90;;;;;;;;;;4922699;29;20533;-73
2023/10/16 16:21:16;;;;;;;1.58;1.00;;;;;;;;;;4926935;29;20444;-73
2023/10/16 16:23:43;;;;;;;3.17;0.93;;;;;;;;;;4921109;29;20512;-73
2023/10/16 16:26:10;;;;;;;1.97;0.90;;;;;;;;;;4925333;29;20439;-73
2023/10/16 16:28:38;;;;;;;2.30;0.82;;;;;;;;;;4931350;29;20439;-72
2023/10/16 16:31:07;;;;;;;2.58;1.00;;;;;;;;;;4928862;29;20586;-73
2023/10/16 16:33:36;;;;;;;0.80;0.80;;;;;;;;;;4918466;29;20515;-73
2023/10/16 16:36:03;;;;;;;1.88;0.98;;;;;;;;;;4929068;29;21128;-73
2023/10/16 16:38:31;;;;;;;2.30;1.00;;;;;;;;;;4930619;29;20447;-73
2023/10/16 16:40:58;;;;;;;0.98;0.80;;;;;;;;;;4920869;29;20443;-73
2023/10/16 16:43:25;;;;;;;2.83;0.98;;;;;;;;;;4926208;29;20879;-73
2023/10/16 16:45:53;;;;;;;1.80;1.20;;;;;;;;;;4925336;29;20443;-73
2023/10/16 16:48:20;;;;;;;3.75;1.30;;;;;;;;;;4925635;29;20926;-73
2023/10/16 16:50:47;;;;;;;2.22;1.10;;;;;;;;;;4914955;29;20441;-73
2023/10/16 16:53:16;;;;;;;5.30;1.60;;;;;;;;;;4920190;29;21116;-74
2023/10/16 16:55:43;;;;;;;2.20;1.23;;;;;;;;;;4908677;29;20549;-73
2023/10/16 16:58:11;;;;;;;1.65;0.80;;;;;;;;;;4918804;29;20478;-73
2023/10/16 17:00:38;;;;;;;2.28;1.20;;;;;;;;;;4926976;29;20924;-73
2023/10/16 17:03:09;;;;;;;1.20;1.10;;;;;;;;;;4922507;29;20948;-73
2023/10/16 17:05:36;;;;;;;2.70;1.00;;;;;;;;;;4906814;29;20435;-73
2023/10/16 17:08:07;;;;;;;3.08;1.10;;;;;;;;;;4905378;29;20441;-73
2023/10/16 17:10:34;;;;;;;5.10;1.20;;;;;;;;;;4917825;29;20476;-73
2023/10/16 17:13:01;;;;;;;3.10;1.10;;;;;;;;;;4923076;29;21245;-74